sensor_id;sensor_type;location;lat;lon;timestamp;P1;durP1;ratioP1;P2;durP2;ratioP2
71639;SDS011;60912;48.968;10.124;2022-09-21T00:03:30;48.85;;;2.78;;
71639;SDS011;60912;48.968;10.124;2022-09-21T00:06:05;28.73;;;2.33;;
71639;SDS011;60912;48.968;10.124;2022-09-21T00:08:33;23.85;;;2.33;;
71639;SDS011;60912;48.968;10.124;2022-09-21T00:10:58;15.70;;;1.90;;
71639;SDS011;60912;48.968;10.124;2022-09-21T00:13:24;29.65;;;2.40;;
71639;SDS011;60912;48.968;10.124;2022-09-21T00:15:52;57.57;;;2.77;;
71639;SDS011;60912;48.968;10.124;2022-09-21T00:18:20;26.40;;;2.28;;
71639;SDS011;60912;48.968;10.124;2022-09-21T00:20:46;19.95;;;2.17;;
71639;SDS011;60912;48.968;10.124;2022-09-21T00:23:12;149.30;;;4.17;;
71639;SDS011;60912;48.968;10.124;2022-09-21T00:25:37;67.90;;;2.92;;
71639;SDS011;60912;48.968;10.124;2022-09-21T00:28:03;74.30;;;3.07;;
71639;SDS011;60912;48.968;10.124;2022-09-21T00:30:28;86.57;;;3.43;;
71639;SDS011;60912;48.968;10.124;2022-09-21T00:32:54;29.92;;;2.42;;
71639;SDS011;60912;48.968;10.124;2022-09-21T00:35:19;45.17;;;2.50;;
71639;SDS011;60912;48.968;10.124;2022-09-21T00:37:45;12.67;;;2.07;;
71639;SDS011;60912;48.968;10.124;2022-09-21T00:40:10;35.57;;;2.27;;
71639;SDS011;60912;48.968;10.124;2022-09-21T00:42:36;62.45;;;2.60;;
71639;SDS011;60912;48.968;10.124;2022-09-21T00:45:02;34.50;;;2.20;;
71639;SDS011;60912;48.968;10.124;2022-09-21T00:47:33;18.83;;;2.20;;
71639;SDS011;60912;48.968;10.124;2022-09-21T00:50:02;58.03;;;2.40;;
71639;SDS011;60912;48.968;10.124;2022-09-21T00:52:32;87.55;;;2.90;;
71639;SDS011;60912;48.968;10.124;2022-09-21T00:55:03;66.28;;;2.75;;
71639;SDS011;60912;48.968;10.124;2022-09-21T00:57:41;79.17;;;2.93;;
71639;SDS011;60912;48.968;10.124;2022-09-21T01:00:08;23.77;;;1.98;;
71639;SDS011;60912;48.968;10.124;2022-09-21T01:02:37;11.30;;;1.92;;
71639;SDS011;60912;48.968;10.124;2022-09-21T01:05:04;62.88;;;2.42;;
71639;SDS011;60912;48.968;10.124;2022-09-21T01:07:33;57.80;;;2.47;;
71639;SDS011;60912;48.968;10.124;2022-09-21T01:10:04;36.60;;;2.30;;
71639;SDS011;60912;48.968;10.124;2022-09-21T01:21:09;89.30;;;3.38;;
71639;SDS011;60912;48.968;10.124;2022-09-21T01:26:22;67.38;;;2.90;;
71639;SDS011;60912;48.968;10.124;2022-09-21T01:31:49;86.22;;;3.25;;
71639;SDS011;60912;48.968;10.124;2022-09-21T01:34:38;37.70;;;2.47;;
71639;SDS011;60912;48.968;10.124;2022-09-21T01:37:09;49.00;;;3.40;;
71639;SDS011;60912;48.968;10.124;2022-09-21T01:39:41;16.15;;;2.78;;
71639;SDS011;60912;48.968;10.124;2022-09-21T01:42:10;76.95;;;3.17;;
71639;SDS011;60912;48.968;10.124;2022-09-21T01:44:38;72.18;;;3.17;;
71639;SDS011;60912;48.968;10.124;2022-09-21T01:47:06;27.60;;;2.35;;
71639;SDS011;60912;48.968;10.124;2022-09-21T01:49:35;51.63;;;2.63;;
71639;SDS011;60912;48.968;10.124;2022-09-21T01:54:53;67.80;;;3.08;;
71639;SDS011;60912;48.968;10.124;2022-09-21T01:57:24;131.80;;;3.90;;
71639;SDS011;60912;48.968;10.124;2022-09-21T02:00:02;55.67;;;2.50;;
71639;SDS011;60912;48.968;10.124;2022-09-21T02:02:41;22.03;;;1.90;;
71639;SDS011;60912;48.968;10.124;2022-09-21T02:05:17;16.63;;;1.73;;
71639;SDS011;60912;48.968;10.124;2022-09-21T02:07:45;131.85;;;3.85;;
71639;SDS011;60912;48.968;10.124;2022-09-21T02:10:16;83.35;;;3.53;;
71639;SDS011;60912;48.968;10.124;2022-09-21T02:12:46;140.85;;;4.35;;
71639;SDS011;60912;48.968;10.124;2022-09-21T02:15:13;210.93;;;5.50;;
71639;SDS011;60912;48.968;10.124;2022-09-21T02:20:30;4.33;;;1.70;;
71639;SDS011;60912;48.968;10.124;2022-09-21T02:23:19;71.57;;;2.88;;
71639;SDS011;60912;48.968;10.124;2022-09-21T02:25:57;21.42;;;1.83;;
71639;SDS011;60912;48.968;10.124;2022-09-21T02:31:16;163.35;;;4.40;;
71639;SDS011;60912;48.968;10.124;2022-09-21T02:33:56;229.03;;;5.77;;
71639;SDS011;60912;48.968;10.124;2022-09-21T02:39:02;212.30;;;5.55;;
71639;SDS011;60912;48.968;10.124;2022-09-21T02:44:39;149.80;;;4.28;;
71639;SDS011;60912;48.968;10.124;2022-09-21T02:47:15;160.30;;;4.33;;
71639;SDS011;60912;48.968;10.124;2022-09-21T02:49:47;96.68;;;3.25;;
71639;SDS011;60912;48.968;10.124;2022-09-21T02:52:17;168.98;;;4.68;;
71639;SDS011;60912;48.968;10.124;2022-09-21T02:54:45;96.53;;;3.53;;
71639;SDS011;60912;48.968;10.124;2022-09-21T02:57:16;101.15;;;3.05;;
71639;SDS011;60912;48.968;10.124;2022-09-21T02:59:44;36.97;;;2.27;;
71639;SDS011;60912;48.968;10.124;2022-09-21T03:02:10;91.10;;;3.20;;
71639;SDS011;60912;48.968;10.124;2022-09-21T03:04:36;109.28;;;4.07;;
71639;SDS011;60912;48.968;10.124;2022-09-21T03:07:05;57.13;;;2.97;;
71639;SDS011;60912;48.968;10.124;2022-09-21T03:09:31;56.00;;;2.53;;
71639;SDS011;60912;48.968;10.124;2022-09-21T03:11:56;39.75;;;2.28;;
71639;SDS011;60912;48.968;10.124;2022-09-21T03:14:22;25.03;;;1.90;;
71639;SDS011;60912;48.968;10.124;2022-09-21T03:16:47;34.47;;;2.33;;
71639;SDS011;60912;48.968;10.124;2022-09-21T03:19:12;14.07;;;1.73;;
71639;SDS011;60912;48.968;10.124;2022-09-21T03:21:39;173.68;;;5.20;;
71639;SDS011;60912;48.968;10.124;2022-09-21T03:24:04;114.10;;;4.03;;
71639;SDS011;60912;48.968;10.124;2022-09-21T03:26:29;81.50;;;3.30;;
71639;SDS011;60912;48.968;10.124;2022-09-21T03:28:55;89.97;;;3.23;;
71639;SDS011;60912;48.968;10.124;2022-09-21T03:31:20;180.23;;;4.90;;
71639;SDS011;60912;48.968;10.124;2022-09-21T03:33:46;46.92;;;2.53;;
71639;SDS011;60912;48.968;10.124;2022-09-21T03:36:12;19.38;;;2.17;;
71639;SDS011;60912;48.968;10.124;2022-09-21T03:38:38;68.47;;;2.80;;
71639;SDS011;60912;48.968;10.124;2022-09-21T03:41:03;103.53;;;3.22;;
71639;SDS011;60912;48.968;10.124;2022-09-21T03:43:29;61.93;;;2.53;;
71639;SDS011;60912;48.968;10.124;2022-09-21T03:45:55;111.63;;;3.45;;
71639;SDS011;60912;48.968;10.124;2022-09-21T03:48:20;133.20;;;4.00;;
71639;SDS011;60912;48.968;10.124;2022-09-21T03:50:46;123.10;;;3.90;;
71639;SDS011;60912;48.968;10.124;2022-09-21T03:53:12;97.37;;;3.27;;
71639;SDS011;60912;48.968;10.124;2022-09-21T03:55:38;165.40;;;4.90;;
71639;SDS011;60912;48.968;10.124;2022-09-21T03:58:03;162.82;;;4.63;;
71639;SDS011;60912;48.968;10.124;2022-09-21T04:00:29;80.10;;;3.40;;
71639;SDS011;60912;48.968;10.124;2022-09-21T04:02:55;106.60;;;3.78;;
71639;SDS011;60912;48.968;10.124;2022-09-21T04:05:20;176.60;;;5.20;;
71639;SDS011;60912;48.968;10.124;2022-09-21T04:07:46;140.43;;;4.90;;
71639;SDS011;60912;48.968;10.124;2022-09-21T04:10:13;95.40;;;3.78;;
71639;SDS011;60912;48.968;10.124;2022-09-21T04:12:40;71.00;;;4.13;;
71639;SDS011;60912;48.968;10.124;2022-09-21T04:15:10;20.40;;;2.20;;
71639;SDS011;60912;48.968;10.124;2022-09-21T04:17:36;30.30;;;2.60;;
71639;SDS011;60912;48.968;10.124;2022-09-21T04:20:02;188.63;;;7.50;;
71639;SDS011;60912;48.968;10.124;2022-09-21T04:22:28;25.80;;;2.90;;
71639;SDS011;60912;48.968;10.124;2022-09-21T04:24:54;44.97;;;3.70;;
71639;SDS011;60912;48.968;10.124;2022-09-21T04:27:19;34.63;;;3.43;;
71639;SDS011;60912;48.968;10.124;2022-09-21T04:29:44;62.40;;;3.77;;
71639;SDS011;60912;48.968;10.124;2022-09-21T04:32:10;64.88;;;4.00;;
71639;SDS011;60912;48.968;10.124;2022-09-21T04:34:35;10.87;;;3.00;;
71639;SDS011;60912;48.968;10.124;2022-09-21T04:37:03;131.15;;;6.28;;
71639;SDS011;60912;48.968;10.124;2022-09-21T04:39:29;31.13;;;3.17;;
71639;SDS011;60912;48.968;10.124;2022-09-21T04:41:54;63.43;;;2.93;;
71639;SDS011;60912;48.968;10.124;2022-09-21T04:44:20;65.07;;;3.10;;
71639;SDS011;60912;48.968;10.124;2022-09-21T04:46:46;109.33;;;4.10;;
71639;SDS011;60912;48.968;10.124;2022-09-21T04:49:11;55.50;;;3.57;;
71639;SDS011;60912;48.968;10.124;2022-09-21T04:51:37;104.97;;;4.20;;
71639;SDS011;60912;48.968;10.124;2022-09-21T04:54:03;94.75;;;4.18;;
71639;SDS011;60912;48.968;10.124;2022-09-21T04:56:28;110.85;;;4.60;;
71639;SDS011;60912;48.968;10.124;2022-09-21T04:58:54;148.37;;;6.10;;
71639;SDS011;60912;48.968;10.124;2022-09-21T05:01:19;117.85;;;5.32;;
71639;SDS011;60912;48.968;10.124;2022-09-21T05:03:45;22.67;;;2.97;;
71639;SDS011;60912;48.968;10.124;2022-09-21T05:06:10;108.27;;;4.70;;
71639;SDS011;60912;48.968;10.124;2022-09-21T05:08:37;13.18;;;2.42;;
71639;SDS011;60912;48.968;10.124;2022-09-21T05:11:22;53.70;;;3.03;;
71639;SDS011;60912;48.968;10.124;2022-09-21T05:13:48;82.07;;;3.83;;
71639;SDS011;60912;48.968;10.124;2022-09-21T05:16:14;89.40;;;4.10;;
71639;SDS011;60912;48.968;10.124;2022-09-21T05:18:40;32.60;;;2.65;;
71639;SDS011;60912;48.968;10.124;2022-09-21T05:21:05;179.20;;;5.80;;
71639;SDS011;60912;48.968;10.124;2022-09-21T05:23:31;39.53;;;2.70;;
71639;SDS011;60912;48.968;10.124;2022-09-21T05:25:57;139.13;;;5.13;;
71639;SDS011;60912;48.968;10.124;2022-09-21T05:28:23;32.10;;;2.67;;
71639;SDS011;60912;48.968;10.124;2022-09-21T05:31:01;109.97;;;4.53;;
71639;SDS011;60912;48.968;10.124;2022-09-21T05:33:28;48.35;;;3.53;;
71639;SDS011;60912;48.968;10.124;2022-09-21T05:38:31;67.38;;;3.72;;
71639;SDS011;60912;48.968;10.124;2022-09-21T05:40:57;36.45;;;3.40;;
71639;SDS011;60912;48.968;10.124;2022-09-21T05:43:22;84.60;;;4.63;;
71639;SDS011;60912;48.968;10.124;2022-09-21T05:45:53;44.58;;;3.72;;
71639;SDS011;60912;48.968;10.124;2022-09-21T05:48:27;105.90;;;5.50;;
71639;SDS011;60912;48.968;10.124;2022-09-21T05:51:11;17.10;;;2.80;;
71639;SDS011;60912;48.968;10.124;2022-09-21T05:56:42;116.18;;;5.30;;
71639;SDS011;60912;48.968;10.124;2022-09-21T06:04:52;18.83;;;6.80;;
71639;SDS011;60912;48.968;10.124;2022-09-21T06:07:21;20.63;;;6.13;;
71639;SDS011;60912;48.968;10.124;2022-09-21T06:09:47;12.77;;;5.30;;
71639;SDS011;60912;48.968;10.124;2022-09-21T06:12:12;28.77;;;6.97;;
71639;SDS011;60912;48.968;10.124;2022-09-21T06:14:37;75.95;;;6.43;;
71639;SDS011;60912;48.968;10.124;2022-09-21T06:17:03;96.20;;;6.80;;
71639;SDS011;60912;48.968;10.124;2022-09-21T06:19:28;55.47;;;5.43;;
71639;SDS011;60912;48.968;10.124;2022-09-21T06:21:54;29.63;;;4.57;;
71639;SDS011;60912;48.968;10.124;2022-09-21T06:24:19;16.57;;;4.10;;
71639;SDS011;60912;48.968;10.124;2022-09-21T06:26:44;53.10;;;5.35;;
71639;SDS011;60912;48.968;10.124;2022-09-21T06:29:10;43.13;;;5.17;;
71639;SDS011;60912;48.968;10.124;2022-09-21T06:31:35;17.37;;;4.50;;
71639;SDS011;60912;48.968;10.124;2022-09-21T06:34:00;14.87;;;4.07;;
71639;SDS011;60912;48.968;10.124;2022-09-21T06:36:26;12.38;;;4.60;;
71639;SDS011;60912;48.968;10.124;2022-09-21T06:38:51;13.77;;;3.80;;
71639;SDS011;60912;48.968;10.124;2022-09-21T06:41:16;14.97;;;4.00;;
71639;SDS011;60912;48.968;10.124;2022-09-21T06:43:42;18.17;;;4.00;;
71639;SDS011;60912;48.968;10.124;2022-09-21T06:46:07;17.67;;;4.87;;
71639;SDS011;60912;48.968;10.124;2022-09-21T06:48:33;9.43;;;3.60;;
71639;SDS011;60912;48.968;10.124;2022-09-21T06:50:59;7.82;;;3.97;;
71639;SDS011;60912;48.968;10.124;2022-09-21T06:53:26;7.22;;;3.20;;
71639;SDS011;60912;48.968;10.124;2022-09-21T06:55:53;5.45;;;3.00;;
71639;SDS011;60912;48.968;10.124;2022-09-21T06:58:24;6.67;;;3.40;;
71639;SDS011;60912;48.968;10.124;2022-09-21T07:00:49;8.95;;;3.65;;
71639;SDS011;60912;48.968;10.124;2022-09-21T07:03:14;7.17;;;3.60;;
71639;SDS011;60912;48.968;10.124;2022-09-21T07:05:43;5.80;;;3.50;;
71639;SDS011;60912;48.968;10.124;2022-09-21T07:08:09;6.55;;;3.50;;
71639;SDS011;60912;48.968;10.124;2022-09-21T07:10:34;10.80;;;4.00;;
71639;SDS011;60912;48.968;10.124;2022-09-21T07:13:03;10.30;;;3.80;;
71639;SDS011;60912;48.968;10.124;2022-09-21T07:15:30;8.88;;;3.72;;
71639;SDS011;60912;48.968;10.124;2022-09-21T07:17:55;7.72;;;3.58;;
71639;SDS011;60912;48.968;10.124;2022-09-21T07:20:21;6.53;;;3.70;;
71639;SDS011;60912;48.968;10.124;2022-09-21T07:22:46;8.63;;;3.57;;
71639;SDS011;60912;48.968;10.124;2022-09-21T07:25:12;5.20;;;3.20;;
71639;SDS011;60912;48.968;10.124;2022-09-21T07:27:38;6.57;;;3.70;;
71639;SDS011;60912;48.968;10.124;2022-09-21T07:30:04;6.97;;;3.87;;
71639;SDS011;60912;48.968;10.124;2022-09-21T07:32:30;6.60;;;3.53;;
71639;SDS011;60912;48.968;10.124;2022-09-21T07:34:56;6.45;;;3.58;;
71639;SDS011;60912;48.968;10.124;2022-09-21T07:37:22;7.40;;;3.83;;
71639;SDS011;60912;48.968;10.124;2022-09-21T07:39:49;6.85;;;3.80;;
71639;SDS011;60912;48.968;10.124;2022-09-21T07:42:15;7.40;;;3.70;;
71639;SDS011;60912;48.968;10.124;2022-09-21T07:44:42;7.45;;;3.60;;
71639;SDS011;60912;48.968;10.124;2022-09-21T07:47:08;7.43;;;3.90;;
71639;SDS011;60912;48.968;10.124;2022-09-21T07:49:33;5.50;;;3.30;;
71639;SDS011;60912;48.968;10.124;2022-09-21T07:51:59;8.73;;;3.42;;
71639;SDS011;60912;48.968;10.124;2022-09-21T07:54:24;6.27;;;3.70;;
71639;SDS011;60912;48.968;10.124;2022-09-21T07:56:49;7.13;;;3.87;;
71639;SDS011;60912;48.968;10.124;2022-09-21T07:59:33;8.75;;;3.70;;
71639;SDS011;60912;48.968;10.124;2022-09-21T08:01:59;5.70;;;2.93;;
71639;SDS011;60912;48.968;10.124;2022-09-21T08:04:24;5.10;;;3.03;;
71639;SDS011;60912;48.968;10.124;2022-09-21T08:06:50;5.07;;;2.78;;
71639;SDS011;60912;48.968;10.124;2022-09-21T08:09:15;4.40;;;2.40;;
71639;SDS011;60912;48.968;10.124;2022-09-21T08:11:41;7.00;;;2.73;;
71639;SDS011;60912;48.968;10.124;2022-09-21T08:14:10;6.13;;;2.85;;
71639;SDS011;60912;48.968;10.124;2022-09-21T08:16:43;6.82;;;3.22;;
71639;SDS011;60912;48.968;10.124;2022-09-21T08:19:09;6.88;;;2.35;;
71639;SDS011;60912;48.968;10.124;2022-09-21T08:21:35;6.97;;;2.40;;
71639;SDS011;60912;48.968;10.124;2022-09-21T08:24:00;4.67;;;2.20;;
71639;SDS011;60912;48.968;10.124;2022-09-21T08:26:26;6.40;;;2.22;;
71639;SDS011;60912;48.968;10.124;2022-09-21T08:28:52;5.47;;;2.30;;
71639;SDS011;60912;48.968;10.124;2022-09-21T08:31:19;7.43;;;2.00;;
71639;SDS011;60912;48.968;10.124;2022-09-21T08:33:46;5.97;;;1.85;;
71639;SDS011;60912;48.968;10.124;2022-09-21T08:36:12;4.22;;;1.55;;
71639;SDS011;60912;48.968;10.124;2022-09-21T08:38:37;7.47;;;1.70;;
71639;SDS011;60912;48.968;10.124;2022-09-21T08:41:12;6.00;;;1.45;;
71639;SDS011;60912;48.968;10.124;2022-09-21T08:43:42;3.80;;;1.10;;
71639;SDS011;60912;48.968;10.124;2022-09-21T08:46:11;4.03;;;1.60;;
71639;SDS011;60912;48.968;10.124;2022-09-21T08:49:15;4.15;;;1.40;;
71639;SDS011;60912;48.968;10.124;2022-09-21T08:51:37;3.42;;;1.20;;
71639;SDS011;60912;48.968;10.124;2022-09-21T08:54:14;3.28;;;1.30;;
71639;SDS011;60912;48.968;10.124;2022-09-21T08:56:44;4.25;;;1.35;;
71639;SDS011;60912;48.968;10.124;2022-09-21T08:59:11;4.07;;;1.70;;
71639;SDS011;60912;48.968;10.124;2022-09-21T09:02:01;4.40;;;1.25;;
71639;SDS011;60912;48.968;10.124;2022-09-21T09:18:53;3.67;;;1.38;;
71639;SDS011;60912;48.968;10.124;2022-09-21T09:21:05;4.57;;;1.27;;
71639;SDS011;60912;48.968;10.124;2022-09-21T09:23:42;4.18;;;1.45;;
71639;SDS011;60912;48.968;10.124;2022-09-21T09:31:59;2.20;;;0.82;;
71639;SDS011;60912;48.968;10.124;2022-09-21T09:34:35;3.13;;;1.10;;
71639;SDS011;60912;48.968;10.124;2022-09-21T09:37:10;3.88;;;1.20;;
71639;SDS011;60912;48.968;10.124;2022-09-21T09:39:37;3.13;;;1.10;;
71639;SDS011;60912;48.968;10.124;2022-09-21T09:47:57;3.92;;;1.10;;
71639;SDS011;60912;48.968;10.124;2022-09-21T09:50:30;3.58;;;1.10;;
71639;SDS011;60912;48.968;10.124;2022-09-21T09:53:03;2.97;;;1.10;;
71639;SDS011;60912;48.968;10.124;2022-09-21T09:55:38;3.53;;;1.10;;
71639;SDS011;60912;48.968;10.124;2022-09-21T09:58:13;4.90;;;1.10;;
71639;SDS011;60912;48.968;10.124;2022-09-21T10:00:40;4.40;;;1.10;;
71639;SDS011;60912;48.968;10.124;2022-09-21T10:03:07;3.77;;;1.20;;
71639;SDS011;60912;48.968;10.124;2022-09-21T10:05:41;3.28;;;1.27;;
71639;SDS011;60912;48.968;10.124;2022-09-21T10:11:07;4.13;;;1.30;;
71639;SDS011;60912;48.968;10.124;2022-09-21T10:13:37;3.27;;;0.97;;
71639;SDS011;60912;48.968;10.124;2022-09-21T10:16:17;3.75;;;1.17;;
71639;SDS011;60912;48.968;10.124;2022-09-21T10:21:32;4.38;;;1.02;;
71639;SDS011;60912;48.968;10.124;2022-09-21T10:24:01;3.97;;;1.30;;
71639;SDS011;60912;48.968;10.124;2022-09-21T10:26:37;4.00;;;1.10;;
71639;SDS011;60912;48.968;10.124;2022-09-21T10:29:17;3.72;;;1.10;;
71639;SDS011;60912;48.968;10.124;2022-09-21T10:31:59;3.17;;;1.00;;
71639;SDS011;60912;48.968;10.124;2022-09-21T10:34:31;2.30;;;0.80;;
71639;SDS011;60912;48.968;10.124;2022-09-21T10:36:58;3.13;;;1.27;;
71639;SDS011;60912;48.968;10.124;2022-09-21T10:39:26;5.20;;;1.20;;
71639;SDS011;60912;48.968;10.124;2022-09-21T10:41:57;5.38;;;1.50;;
71639;SDS011;60912;48.968;10.124;2022-09-21T10:44:26;4.18;;;1.15;;
71639;SDS011;60912;48.968;10.124;2022-09-21T10:46:57;5.57;;;1.00;;
71639;SDS011;60912;48.968;10.124;2022-09-21T10:49:26;3.08;;;0.98;;
71639;SDS011;60912;48.968;10.124;2022-09-21T10:51:53;2.70;;;0.90;;
71639;SDS011;60912;48.968;10.124;2022-09-21T10:54:23;2.92;;;0.88;;
71639;SDS011;60912;48.968;10.124;2022-09-21T10:56:52;5.68;;;0.90;;
71639;SDS011;60912;48.968;10.124;2022-09-21T10:59:27;2.53;;;0.80;;
71639;SDS011;60912;48.968;10.124;2022-09-21T11:01:57;3.20;;;0.85;;
71639;SDS011;60912;48.968;10.124;2022-09-21T11:09:58;3.42;;;1.10;;
71639;SDS011;60912;48.968;10.124;2022-09-21T11:20:48;2.25;;;0.80;;
71639;SDS011;60912;48.968;10.124;2022-09-21T11:26:01;3.13;;;0.70;;
71639;SDS011;60912;48.968;10.124;2022-09-21T11:31:22;4.47;;;1.00;;
71639;SDS011;60912;48.968;10.124;2022-09-21T11:36:58;2.67;;;0.75;;
71639;SDS011;60912;48.968;10.124;2022-09-21T11:53:30;2.27;;;1.00;;
71639;SDS011;60912;48.968;10.124;2022-09-21T12:07:04;4.00;;;1.15;;
71639;SDS011;60912;48.968;10.124;2022-09-21T12:12:19;2.95;;;1.00;;
71639;SDS011;60912;48.968;10.124;2022-09-21T12:14:57;3.03;;;0.90;;
71639;SDS011;60912;48.968;10.124;2022-09-21T12:22:39;4.22;;;1.20;;
71639;SDS011;60912;48.968;10.124;2022-09-21T12:25:15;4.50;;;1.15;;
71639;SDS011;60912;48.968;10.124;2022-09-21T12:27:48;4.55;;;1.05;;
71639;SDS011;60912;48.968;10.124;2022-09-21T12:30:17;6.37;;;1.10;;
71639;SDS011;60912;48.968;10.124;2022-09-21T12:41:04;2.50;;;0.95;;
71639;SDS011;60912;48.968;10.124;2022-09-21T12:46:57;4.63;;;1.58;;
71639;SDS011;60912;48.968;10.124;2022-09-21T12:49:33;4.03;;;1.20;;
71639;SDS011;60912;48.968;10.124;2022-09-21T12:52:04;3.22;;;1.00;;
71639;SDS011;60912;48.968;10.124;2022-09-21T12:54:52;4.03;;;1.10;;
71639;SDS011;60912;48.968;10.124;2022-09-21T12:57:46;2.40;;;1.00;;
71639;SDS011;60912;48.968;10.124;2022-09-21T13:00:20;2.95;;;0.93;;
71639;SDS011;60912;48.968;10.124;2022-09-21T13:10:38;4.18;;;1.08;;
71639;SDS011;60912;48.968;10.124;2022-09-21T13:13:31;7.03;;;0.90;;
71639;SDS011;60912;48.968;10.124;2022-09-21T13:16:00;2.63;;;0.90;;
71639;SDS011;60912;48.968;10.124;2022-09-21T13:18:29;3.00;;;1.00;;
71639;SDS011;60912;48.968;10.124;2022-09-21T13:20:58;2.45;;;0.90;;
71639;SDS011;60912;48.968;10.124;2022-09-21T13:26:13;3.22;;;1.02;;
71639;SDS011;60912;48.968;10.124;2022-09-21T13:28:59;1.77;;;0.80;;
71639;SDS011;60912;48.968;10.124;2022-09-21T13:36:39;2.47;;;0.77;;
71639;SDS011;60912;48.968;10.124;2022-09-21T13:41:42;1.88;;;0.73;;
71639;SDS011;60912;48.968;10.124;2022-09-21T13:46:52;2.23;;;0.97;;
71639;SDS011;60912;48.968;10.124;2022-09-21T13:49:23;3.20;;;0.90;;
71639;SDS011;60912;48.968;10.124;2022-09-21T13:52:03;2.13;;;0.90;;
71639;SDS011;60912;48.968;10.124;2022-09-21T13:55:05;2.40;;;0.70;;
71639;SDS011;60912;48.968;10.124;2022-09-21T13:57:27;3.33;;;0.90;;
71639;SDS011;60912;48.968;10.124;2022-09-21T14:02:45;2.00;;;0.80;;
71639;SDS011;60912;48.968;10.124;2022-09-21T14:08:02;1.60;;;0.60;;
71639;SDS011;60912;48.968;10.124;2022-09-21T14:10:32;3.25;;;0.70;;
71639;SDS011;60912;48.968;10.124;2022-09-21T14:13:00;3.07;;;0.80;;
71639;SDS011;60912;48.968;10.124;2022-09-21T14:15:34;1.83;;;0.70;;
71639;SDS011;60912;48.968;10.124;2022-09-21T14:23:33;2.35;;;0.82;;
71639;SDS011;60912;48.968;10.124;2022-09-21T14:26:00;2.03;;;0.70;;
71639;SDS011;60912;48.968;10.124;2022-09-21T14:28:40;2.78;;;0.80;;
71639;SDS011;60912;48.968;10.124;2022-09-21T14:31:16;2.38;;;0.80;;
71639;SDS011;60912;48.968;10.124;2022-09-21T14:33:55;4.90;;;0.90;;
71639;SDS011;60912;48.968;10.124;2022-09-21T14:36:30;5.43;;;1.33;;
71639;SDS011;60912;48.968;10.124;2022-09-21T14:39:03;2.00;;;0.80;;
71639;SDS011;60912;48.968;10.124;2022-09-21T14:41:36;2.13;;;0.80;;
71639;SDS011;60912;48.968;10.124;2022-09-21T14:44:03;2.47;;;0.88;;
71639;SDS011;60912;48.968;10.124;2022-09-21T15:00:10;4.20;;;1.00;;
71639;SDS011;60912;48.968;10.124;2022-09-21T15:02:45;2.67;;;1.08;;
71639;SDS011;60912;48.968;10.124;2022-09-21T15:05:20;5.38;;;0.80;;
71639;SDS011;60912;48.968;10.124;2022-09-21T15:10:57;3.23;;;1.00;;
71639;SDS011;60912;48.968;10.124;2022-09-21T15:14:07;2.78;;;1.00;;
71639;SDS011;60912;48.968;10.124;2022-09-21T15:16:48;2.40;;;1.00;;
71639;SDS011;60912;48.968;10.124;2022-09-21T15:26:50;3.75;;;0.90;;
71639;SDS011;60912;48.968;10.124;2022-09-21T15:29:28;2.67;;;0.95;;
71639;SDS011;60912;48.968;10.124;2022-09-21T15:31:55;2.20;;;0.80;;
71639;SDS011;60912;48.968;10.124;2022-09-21T15:34:23;3.60;;;1.15;;
71639;SDS011;60912;48.968;10.124;2022-09-21T15:36:48;2.93;;;0.90;;
71639;SDS011;60912;48.968;10.124;2022-09-21T15:39:26;3.35;;;0.95;;
71639;SDS011;60912;48.968;10.124;2022-09-21T15:42:07;2.13;;;0.80;;
71639;SDS011;60912;48.968;10.124;2022-09-21T15:44:36;3.33;;;0.90;;
71639;SDS011;60912;48.968;10.124;2022-09-21T15:47:03;2.75;;;0.98;;
71639;SDS011;60912;48.968;10.124;2022-09-21T15:49:32;1.77;;;0.80;;
71639;SDS011;60912;48.968;10.124;2022-09-21T15:52:09;2.55;;;0.95;;
71639;SDS011;60912;48.968;10.124;2022-09-21T15:54:39;4.53;;;1.00;;
71639;SDS011;60912;48.968;10.124;2022-09-21T15:57:21;2.67;;;1.00;;
71639;SDS011;60912;48.968;10.124;2022-09-21T15:59:49;2.20;;;0.80;;
71639;SDS011;60912;48.968;10.124;2022-09-21T16:02:17;2.42;;;1.00;;
71639;SDS011;60912;48.968;10.124;2022-09-21T16:04:47;5.20;;;1.13;;
71639;SDS011;60912;48.968;10.124;2022-09-21T16:07:30;2.17;;;1.00;;
71639;SDS011;60912;48.968;10.124;2022-09-21T16:10:00;2.23;;;0.80;;
71639;SDS011;60912;48.968;10.124;2022-09-21T16:12:30;2.10;;;0.95;;
71639;SDS011;60912;48.968;10.124;2022-09-21T16:15:00;2.90;;;1.10;;
71639;SDS011;60912;48.968;10.124;2022-09-21T16:17:35;2.97;;;1.20;;
71639;SDS011;60912;48.968;10.124;2022-09-21T16:25:34;2.35;;;0.90;;
71639;SDS011;60912;48.968;10.124;2022-09-21T16:28:43;3.17;;;0.90;;
71639;SDS011;60912;48.968;10.124;2022-09-21T16:30:53;2.90;;;1.00;;
71639;SDS011;60912;48.968;10.124;2022-09-21T16:38:44;4.07;;;0.93;;
71639;SDS011;60912;48.968;10.124;2022-09-21T16:41:11;3.72;;;1.00;;
71639;SDS011;60912;48.968;10.124;2022-09-21T16:43:36;2.08;;;0.95;;
71639;SDS011;60912;48.968;10.124;2022-09-21T16:46:04;3.95;;;1.50;;
71639;SDS011;60912;48.968;10.124;2022-09-21T16:48:32;5.27;;;1.30;;
71639;SDS011;60912;48.968;10.124;2022-09-21T16:50:58;3.63;;;1.10;;
71639;SDS011;60912;48.968;10.124;2022-09-21T16:53:23;2.63;;;1.03;;
71639;SDS011;60912;48.968;10.124;2022-09-21T16:55:50;3.10;;;1.13;;
71639;SDS011;60912;48.968;10.124;2022-09-21T16:58:17;3.33;;;1.30;;
71639;SDS011;60912;48.968;10.124;2022-09-21T17:00:45;3.50;;;1.20;;
71639;SDS011;60912;48.968;10.124;2022-09-21T17:03:12;4.25;;;1.33;;
71639;SDS011;60912;48.968;10.124;2022-09-21T17:05:39;3.70;;;1.38;;
71639;SDS011;60912;48.968;10.124;2022-09-21T17:08:04;3.20;;;1.50;;
71639;SDS011;60912;48.968;10.124;2022-09-21T17:10:30;4.70;;;1.43;;
71639;SDS011;60912;48.968;10.124;2022-09-21T17:13:01;3.38;;;1.25;;
71639;SDS011;60912;48.968;10.124;2022-09-21T17:15:29;2.67;;;1.30;;
71639;SDS011;60912;48.968;10.124;2022-09-21T17:17:56;5.05;;;1.40;;
71639;SDS011;60912;48.968;10.124;2022-09-21T17:22:57;4.30;;;2.00;;
71639;SDS011;60912;48.968;10.124;2022-09-21T17:25:22;5.07;;;2.00;;
71639;SDS011;60912;48.968;10.124;2022-09-21T17:27:48;7.47;;;2.60;;
71639;SDS011;60912;48.968;10.124;2022-09-21T17:30:13;5.07;;;2.20;;
71639;SDS011;60912;48.968;10.124;2022-09-21T17:32:42;4.70;;;2.35;;
71639;SDS011;60912;48.968;10.124;2022-09-21T17:37:59;6.70;;;2.63;;
71639;SDS011;60912;48.968;10.124;2022-09-21T17:40:24;5.03;;;2.60;;
71639;SDS011;60912;48.968;10.124;2022-09-21T17:42:51;6.90;;;2.50;;
71639;SDS011;60912;48.968;10.124;2022-09-21T17:48:11;4.65;;;2.63;;
71639;SDS011;60912;48.968;10.124;2022-09-21T17:50:41;5.50;;;2.50;;
71639;SDS011;60912;48.968;10.124;2022-09-21T17:53:07;4.63;;;2.43;;
71639;SDS011;60912;48.968;10.124;2022-09-21T17:55:58;4.72;;;2.40;;
71639;SDS011;60912;48.968;10.124;2022-09-21T18:01:37;5.23;;;2.73;;
71639;SDS011;60912;48.968;10.124;2022-09-21T18:04:06;6.63;;;2.72;;
71639;SDS011;60912;48.968;10.124;2022-09-21T18:06:35;4.63;;;2.70;;
71639;SDS011;60912;48.968;10.124;2022-09-21T18:09:00;9.40;;;2.80;;
71639;SDS011;60912;48.968;10.124;2022-09-21T18:11:42;9.48;;;2.80;;
71639;SDS011;60912;48.968;10.124;2022-09-21T18:20:12;6.15;;;2.67;;
71639;SDS011;60912;48.968;10.124;2022-09-21T18:22:55;4.60;;;2.42;;
71639;SDS011;60912;48.968;10.124;2022-09-21T18:25:33;6.15;;;2.55;;
71639;SDS011;60912;48.968;10.124;2022-09-21T18:28:02;6.10;;;2.20;;